Time;durP1;ratioP1;P1;durP2;ratioP2;P2;SDS_P1;SDS_P2;PMS_P1;PMS_P2;Temp;Humidity;BMP_temperature;BMP_pressure;BME280_temperature;BME280_humidity;BME280_pressure;Samples;Min_cycle;Max_cycle;Signal;HPM_P1;HPM_P2
2022/12/14 00:01:38;;;;;;;106.82;63.78;;;52.00;2227.20;;;;;;4971279;28;20019;-62
2022/12/14 00:04:03;;;;;;;110.43;67.95;;;52.10;2227.20;;;;;;4971501;28;20106;-62
2022/12/14 00:06:31;;;;;;;112.63;66.00;;;52.10;2227.20;;;;;;4971096;28;20105;-61
2022/12/14 00:08:59;;;;;;;96.50;61.20;;;76.80;2227.20;;;;;;4971370;28;20122;-61
2022/12/14 00:11:25;;;;;;;105.00;63.72;;;76.80;2227.20;;;;;;4970849;28;20031;-66
2022/12/14 00:13:56;;;;;;;107.05;62.63;;;76.80;2227.20;;;;;;4971152;28;20050;-61
2022/12/14 00:16:24;;;;;;;97.43;61.72;;;76.90;2227.20;;;;;;4971112;28;20034;-58
2022/12/14 00:18:51;;;;;;;93.82;60.08;;;77.00;2227.20;;;;;;4971124;28;20489;-57
2022/12/14 00:21:17;;;;;;;94.22;58.40;;;77.00;2227.20;;;;;;4953850;28;20031;-57
2022/12/14 00:23:44;;;;;;;97.57;56.45;;;77.10;2227.20;;;;;;4971257;28;20496;-55
2022/12/14 00:26:13;;;;;;;139.52;76.97;;;77.10;2227.20;;;;;;4970997;28;20540;-55
2022/12/14 00:28:39;;;;;;;66.20;44.53;;;77.10;2227.20;;;;;;4970881;28;20042;-57
2022/12/14 00:31:05;;;;;;;86.65;46.72;;;77.20;2227.20;;;;;;4971455;28;20043;-56
2022/12/14 00:33:31;;;;;;;87.43;56.28;;;77.20;2227.20;;;;;;4971078;28;20486;-58
2022/12/14 00:35:57;;;;;;;86.63;52.95;;;77.20;2227.20;;;;;;4971044;28;20393;-57
2022/12/14 00:38:23;;;;;;;84.80;51.63;;;77.10;2227.20;;;;;;4971181;28;20053;-59
2022/12/14 00:40:49;;;;;;;94.75;57.80;;;77.10;2227.20;;;;;;4970631;28;20114;-57
2022/12/14 00:43:15;;;;;;;104.63;65.10;;;77.10;2227.20;;;;;;4974317;28;20089;-66
2022/12/14 00:45:44;;;;;;;102.20;62.92;;;77.20;2227.20;;;;;;4974692;28;20023;-64
2022/12/14 00:48:11;;;;;;;100.10;56.67;;;77.10;2227.20;;;;;;4974667;28;20035;-62
2022/12/14 00:50:37;;;;;;;95.90;56.58;;;77.10;2227.20;;;;;;4974869;28;20031;-55
2022/12/14 00:53:02;;;;;;;93.55;56.65;;;77.00;2227.20;;;;;;4974697;28;20429;-64
2022/12/14 00:55:28;;;;;;;94.80;60.90;;;76.80;2227.20;;;;;;4973605;28;20035;-56
2022/12/14 00:57:54;;;;;;;119.55;79.25;;;52.10;2227.20;;;;;;4991989;28;20051;-62
2022/12/14 01:00:19;;;;;;;181.75;106.05;;;52.10;2227.20;;;;;;4993723;28;20034;-65
2022/12/14 01:02:45;;;;;;;169.98;98.88;;;52.10;2227.20;;;;;;4993856;28;20033;-56
2022/12/14 01:05:11;;;;;;;164.18;94.45;;;52.10;2227.20;;;;;;4993604;28;20054;-56
2022/12/14 01:07:36;;;;;;;168.65;101.13;;;52.10;2227.20;;;;;;4993920;28;20117;-63
2022/12/14 01:10:02;;;;;;;184.95;104.10;;;76.90;2227.20;;;;;;4993865;28;20027;-55
2022/12/14 01:12:29;;;;;;;138.55;79.32;;;76.90;2227.20;;;;;;4993576;28;20473;-55
2022/12/14 01:14:54;;;;;;;152.55;95.20;;;77.00;2227.20;;;;;;4993682;28;20229;-55
2022/12/14 01:17:20;;;;;;;141.77;80.53;;;77.00;2227.20;;;;;;4993703;28;20158;-60
2022/12/14 01:19:46;;;;;;;158.80;94.95;;;77.00;2227.20;;;;;;4993566;28;20377;-55
2022/12/14 01:22:12;;;;;;;160.73;98.05;;;77.00;2227.20;;;;;;4993227;28;20038;-55
2022/12/14 01:24:38;;;;;;;140.43;85.80;;;77.10;2227.20;;;;;;4993225;28;20029;-56
2022/12/14 01:27:03;;;;;;;128.80;77.05;;;77.00;2227.20;;;;;;4993727;28;20030;-61
2022/12/14 01:29:29;;;;;;;133.90;84.00;;;77.10;2227.20;;;;;;4994040;28;20073;-55
2022/12/14 01:31:55;;;;;;;157.18;97.88;;;77.00;2227.20;;;;;;4993251;28;20072;-63
2022/12/14 01:34:20;;;;;;;122.55;74.75;;;77.10;2227.20;;;;;;4993352;28;20042;-57
2022/12/14 01:36:46;;;;;;;187.65;106.20;;;77.00;2227.20;;;;;;4993101;28;20105;-62
2022/12/14 01:39:13;;;;;;;138.80;83.45;;;77.00;2227.20;;;;;;4993207;28;20030;-64
2022/12/14 01:41:43;;;;;;;155.18;93.75;;;77.10;2227.20;;;;;;4993214;28;20022;-57
2022/12/14 01:44:09;;;;;;;137.75;83.18;;;77.10;2227.20;;;;;;4993024;28;20109;-63
2022/12/14 01:46:39;;;;;;;133.13;79.70;;;52.10;2227.20;;;;;;4993367;28;20054;-55
2022/12/14 01:49:10;;;;;;;123.63;73.65;;;76.90;2227.20;;;;;;4993133;28;20030;-55
2022/12/14 01:51:39;;;;;;;121.78;74.43;;;77.00;2227.20;;;;;;4993172;28;20031;-55
2022/12/14 01:54:07;;;;;;;118.90;69.55;;;77.00;2227.20;;;;;;4991890;28;20615;-55
2022/12/14 01:56:35;;;;;;;107.30;65.72;;;77.00;2227.20;;;;;;4992884;28;20491;-56
2022/12/14 01:59:07;;;;;;;120.50;73.70;;;77.10;2227.20;;;;;;4992632;28;20037;-56
2022/12/14 02:01:33;;;;;;;125.47;74.63;;;77.10;2227.20;;;;;;4993229;28;20364;-56
2022/12/14 02:04:00;;;;;;;113.38;67.75;;;77.10;2227.20;;;;;;4992689;28;20480;-55
2022/12/14 02:06:34;;;;;;;103.38;62.63;;;77.10;2227.20;;;;;;4992553;28;20030;-55
2022/12/14 02:09:07;;;;;;;101.85;61.88;;;77.10;2227.20;;;;;;4992670;28;20532;-64
2022/12/14 02:11:55;;;;;;;101.20;63.42;;;77.10;2227.20;;;;;;4992655;28;20280;-55
2022/12/14 02:14:21;;;;;;;104.15;59.30;;;77.30;2227.20;;;;;;4992473;28;20139;-56
2022/12/14 02:16:51;;;;;;;93.50;55.25;;;77.20;2227.20;;;;;;4992289;28;20030;-55
2022/12/14 02:19:17;;;;;;;123.88;69.95;;;77.10;2227.20;;;;;;4992500;28;20046;-56
2022/12/14 02:22:01;;;;;;;124.28;70.93;;;77.20;2227.20;;;;;;4992320;28;20477;-64
2022/12/14 02:24:55;;;;;;;124.57;74.22;;;77.20;2227.20;;;;;;4992443;28;20428;-55
2022/12/14 02:27:49;;;;;;;94.55;58.80;;;77.20;2227.20;;;;;;4992253;28;20389;-55
2022/12/14 02:30:23;;;;;;;102.85;62.30;;;77.20;2227.20;;;;;;4992305;28;20022;-55
2022/12/14 02:33:09;;;;;;;96.97;57.05;;;77.20;2227.20;;;;;;4992047;28;20066;-54
2022/12/14 02:36:09;;;;;;;100.57;52.75;;;77.10;2227.20;;;;;;4992282;28;20097;-55
2022/12/14 02:39:02;;;;;;;95.28;54.22;;;77.00;2227.20;;;;;;4992106;28;20031;-55
2022/12/14 02:41:59;;;;;;;79.38;49.53;;;77.00;2227.20;;;;;;4992269;28;20377;-56
2022/12/14 02:44:48;;;;;;;82.10;50.15;;;77.10;2227.20;;;;;;4992278;28;20370;-55
2022/12/14 02:47:23;;;;;;;92.40;52.85;;;77.00;2227.20;;;;;;4992079;28;20462;-55
2022/12/14 02:50:05;;;;;;;86.35;50.15;;;77.30;2227.20;;;;;;4991810;28;20034;-55
2022/12/14 02:52:40;;;;;;;74.93;43.92;;;77.00;2227.20;;;;;;4991595;28;20043;-56
2022/12/14 02:55:19;;;;;;;77.63;41.25;;;77.00;2227.20;;;;;;4992000;28;20029;-55
2022/12/14 02:57:51;;;;;;;72.70;43.42;;;77.00;2227.20;;;;;;4991702;28;20054;-55
2022/12/14 03:00:17;;;;;;;73.22;42.45;;;77.00;2227.20;;;;;;4991833;28;20535;-54
2022/12/14 03:02:44;;;;;;;73.65;43.20;;;77.10;2227.20;;;;;;4991971;28;20030;-55
2022/12/14 03:05:10;;;;;;;77.53;45.20;;;77.20;2227.20;;;;;;4991341;28;20050;-55
2022/12/14 03:08:04;;;;;;;79.38;47.45;;;77.20;2227.20;;;;;;4991661;28;20132;-55
2022/12/14 03:10:40;;;;;;;76.88;43.45;;;77.20;2227.20;;;;;;4988705;28;20042;-56
2022/12/14 03:13:14;;;;;;;96.75;55.25;;;77.20;2227.20;;;;;;4991379;28;20088;-64
2022/12/14 03:15:43;;;;;;;86.03;52.38;;;77.20;2227.20;;;;;;4991314;28;20022;-54
2022/12/14 03:18:12;;;;;;;87.05;54.10;;;77.20;2227.20;;;;;;4991372;28;20023;-55
2022/12/14 03:20:40;;;;;;;92.93;58.70;;;77.00;2227.20;;;;;;4991216;28;20034;-55
2022/12/14 03:23:13;;;;;;;104.82;68.43;;;52.10;2227.20;;;;;;4991227;28;20030;-55
2022/12/14 03:25:46;;;;;;;111.88;67.35;;;76.80;2227.20;;;;;;4991104;28;20027;-55
2022/12/14 03:28:23;;;;;;;112.65;67.10;;;77.00;2227.20;;;;;;4991093;28;20045;-65
2022/12/14 03:31:05;;;;;;;111.95;70.88;;;77.00;2227.20;;;;;;4991101;28;20488;-57
2022/12/14 03:33:34;;;;;;;113.93;68.78;;;77.10;2227.20;;;;;;4991024;28;20082;-56
2022/12/14 03:36:23;;;;;;;110.00;65.88;;;77.00;2227.20;;;;;;4990943;28;20109;-65
2022/12/14 03:38:51;;;;;;;108.47;65.47;;;77.10;2227.20;;;;;;4990676;28;20038;-57
2022/12/14 03:41:22;;;;;;;102.28;68.32;;;77.30;2227.20;;;;;;4991237;28;20033;-62
2022/12/14 03:44:02;;;;;;;100.28;62.55;;;77.20;2227.20;;;;;;4990889;28;20031;-56
2022/12/14 03:46:50;;;;;;;98.47;60.00;;;77.10;2227.20;;;;;;4991100;28;20053;-57
2022/12/14 03:49:22;;;;;;;96.22;60.47;;;76.80;2227.20;;;;;;4991117;28;20393;-61
2022/12/14 03:51:59;;;;;;;109.10;63.13;;;52.10;2227.20;;;;;;4990636;28;20485;-58
2022/12/14 03:54:49;;;;;;;108.07;59.70;;;51.80;2227.20;;;;;;4990873;28;20026;-57
2022/12/14 03:57:39;;;;;;;113.25;67.50;;;51.70;2227.20;;;;;;4990673;28;20050;-65
2022/12/14 04:00:09;;;;;;;110.68;62.70;;;51.80;2227.20;;;;;;4990968;28;20117;-57
2022/12/14 04:02:53;;;;;;;111.63;68.10;;;51.70;2227.20;;;;;;4990925;28;20030;-56
2022/12/14 04:05:32;;;;;;;107.97;64.47;;;51.80;2227.20;;;;;;4990403;28;20018;-57
2022/12/14 04:08:14;;;;;;;93.60;59.90;;;51.90;2227.20;;;;;;4990703;28;20034;-60
2022/12/14 04:19:22;;;;;;;91.32;54.55;;;52.00;2227.20;;;;;;4994625;28;20125;-57
2022/12/14 04:21:53;;;;;;;86.30;53.80;;;52.10;2227.20;;;;;;4994350;28;20100;-57
2022/12/14 04:27:24;;;;;;;94.90;55.97;;;52.10;2227.20;;;;;;4994517;28;20045;-56
2022/12/14 04:29:56;;;;;;;85.00;54.17;;;52.10;2227.20;;;;;;4994393;28;20056;-56
2022/12/14 04:32:36;;;;;;;93.25;56.50;;;51.90;2227.20;;;;;;4994191;28;20042;-65
2022/12/14 04:35:11;;;;;;;97.55;57.67;;;52.00;2227.20;;;;;;4994312;28;20385;-57
2022/12/14 04:37:40;;;;;;;99.75;59.17;;;52.00;2227.20;;;;;;4994501;28;20037;-57
2022/12/14 04:40:24;;;;;;;91.57;60.10;;;51.90;2227.20;;;;;;4994422;28;20373;-57
2022/12/14 04:43:00;;;;;;;96.40;59.58;;;51.90;2227.20;;;;;;4994266;28;20109;-56
2022/12/14 04:45:32;;;;;;;98.15;59.03;;;51.80;2227.20;;;;;;4994299;28;20022;-57
2022/12/14 04:48:35;;;;;;;101.43;59.25;;;51.60;2227.20;;;;;;4994359;28;20050;-57
2022/12/14 04:51:17;;;;;;;105.93;64.57;;;51.60;2227.20;;;;;;4994089;28;20037;-59
2022/12/14 04:53:45;;;;;;;92.25;58.35;;;51.60;2227.20;;;;;;4993852;28;20038;-56
2022/12/14 04:56:26;;;;;;;97.47;59.65;;;51.60;2227.20;;;;;;4993723;28;20043;-56
2022/12/14 04:58:52;;;;;;;100.78;61.97;;;51.50;2227.20;;;;;;4993756;28;20112;-57
2022/12/14 05:01:42;;;;;;;101.18;60.53;;;51.60;2227.20;;;;;;4993652;28;20022;-58
2022/12/14 05:04:28;;;;;;;97.65;57.20;;;51.60;2227.20;;;;;;4993894;28;20173;-57
2022/12/14 05:07:00;;;;;;;95.68;59.35;;;51.70;2227.20;;;;;;4993683;28;20080;-56
2022/12/14 05:09:33;;;;;;;97.03;60.20;;;51.60;2227.20;;;;;;4993840;28;20034;-56
2022/12/14 05:12:17;;;;;;;93.60;57.28;;;51.70;2227.20;;;;;;4993502;28;20022;-57
2022/12/14 05:15:14;;;;;;;85.10;55.33;;;51.60;2227.20;;;;;;4994061;28;20034;-56
2022/12/14 05:17:41;;;;;;;94.10;53.35;;;51.80;2227.20;;;;;;4914253;29;20040;-58
2022/12/14 05:20:17;;;;;;;83.70;52.83;;;51.80;2227.20;;;;;;4914660;29;20567;-57
2022/12/14 05:22:43;;;;;;;83.55;53.03;;;51.70;2227.20;;;;;;4914383;29;20143;-59
2022/12/14 05:25:09;;;;;;;90.07;54.58;;;51.70;2227.20;;;;;;4914471;29;20024;-57
2022/12/14 05:27:35;;;;;;;88.75;57.53;;;51.70;2227.20;;;;;;4914342;29;20431;-56
2022/12/14 05:30:01;;;;;;;93.78;56.05;;;51.60;2227.20;;;;;;4914396;29;20032;-58
2022/12/14 05:32:29;;;;;;;96.60;56.17;;;51.70;2227.20;;;;;;4914692;29;20189;-57
2022/12/14 05:34:55;;;;;;;97.88;59.83;;;51.70;2227.20;;;;;;4914598;29;20040;-57
2022/12/14 05:37:21;;;;;;;98.85;62.55;;;51.70;2227.20;;;;;;4913900;29;20402;-57
2022/12/14 05:39:46;;;;;;;112.72;68.65;;;51.60;2227.20;;;;;;4914273;29;20028;-65
2022/12/14 05:42:12;;;;;;;96.25;60.58;;;51.60;2227.20;;;;;;4914253;29;20574;-56
2022/12/14 05:44:38;;;;;;;105.53;60.60;;;51.60;2227.20;;;;;;4914023;29;20024;-57
2022/12/14 05:47:03;;;;;;;108.63;63.67;;;51.70;2227.20;;;;;;4914118;29;20046;-56
2022/12/14 05:49:29;;;;;;;101.85;62.80;;;51.70;2227.20;;;;;;4914142;29;20039;-60
2022/12/14 05:51:55;;;;;;;103.28;62.80;;;51.80;2227.20;;;;;;4914038;29;20031;-62
2022/12/14 05:54:21;;;;;;;94.43;57.83;;;52.00;2227.20;;;;;;4964180;28;20031;-59
2022/12/14 05:56:46;;;;;;;97.70;61.10;;;52.00;2227.20;;;;;;4992803;28;20066;-64
2022/12/14 05:59:14;;;;;;;97.40;59.33;;;51.80;2227.20;;;;;;4992748;28;20169;-62
2022/12/14 06:01:44;;;;;;;90.72;56.60;;;51.90;2227.20;;;;;;4992665;28;20548;-64
2022/12/14 06:04:11;;;;;;;94.20;54.13;;;51.90;2227.20;;;;;;4992917;28;20027;-64
2022/12/14 06:06:37;;;;;;;82.95;54.65;;;52.00;2227.20;;;;;;4992791;28;20432;-56
2022/12/14 06:09:06;;;;;;;72.07;48.60;;;52.10;2227.20;;;;;;4992688;28;20037;-62
2022/12/14 06:11:35;;;;;;;85.90;50.53;;;76.90;2227.20;;;;;;4992651;28;20054;-57
2022/12/14 06:14:01;;;;;;;78.70;46.63;;;76.90;2227.20;;;;;;4992681;28;20065;-64
2022/12/14 06:16:27;;;;;;;73.03;45.67;;;76.80;2227.20;;;;;;4992833;28;20477;-61
2022/12/14 06:18:57;;;;;;;71.13;45.67;;;76.80;2227.20;;;;;;4992663;28;20030;-64
2022/12/14 06:21:27;;;;;;;74.70;45.45;;;52.10;2227.20;;;;;;4992573;28;20034;-56
2022/12/14 06:23:54;;;;;;;79.25;50.30;;;76.90;2227.20;;;;;;4992416;28;20184;-55
2022/12/14 06:26:20;;;;;;;82.10;48.42;;;77.00;2227.20;;;;;;4992467;28;20026;-64
2022/12/14 06:28:46;;;;;;;79.30;50.53;;;76.90;2227.20;;;;;;4992402;28;20389;-56
2022/12/14 06:31:18;;;;;;;84.45;51.90;;;76.90;2227.20;;;;;;4992258;28;20022;-65
2022/12/14 06:33:44;;;;;;;93.15;57.13;;;77.00;2227.20;;;;;;4992355;28;20073;-56
2022/12/14 06:36:22;;;;;;;115.93;70.93;;;77.10;2227.20;;;;;;4992130;28;20062;-58
2022/12/14 06:38:51;;;;;;;94.47;56.47;;;77.00;2227.20;;;;;;4991780;28;20073;-56
2022/12/14 06:41:17;;;;;;;96.68;60.22;;;77.00;2227.20;;;;;;4991760;28;20105;-57
2022/12/14 06:43:43;;;;;;;90.38;53.80;;;77.00;2227.20;;;;;;4992127;28;20053;-61
2022/12/14 06:46:10;;;;;;;91.07;58.78;;;77.00;2227.20;;;;;;4992066;28;20054;-63
2022/12/14 06:48:36;;;;;;;88.90;53.63;;;76.80;2227.20;;;;;;4991880;28;20026;-60
2022/12/14 06:51:03;;;;;;;85.65;54.75;;;77.10;2227.20;;;;;;4991614;28;20018;-59
2022/12/14 06:53:32;;;;;;;82.38;51.38;;;77.10;2227.20;;;;;;4991958;28;20038;-59
2022/12/14 06:56:09;;;;;;;78.43;47.67;;;77.10;2227.20;;;;;;4991832;28;20018;-56
2022/12/14 06:58:35;;;;;;;77.13;48.63;;;77.00;2227.20;;;;;;4991963;28;20384;-64
2022/12/14 07:01:03;;;;;;;80.20;49.78;;;77.20;2227.20;;;;;;4991646;28;20157;-56
2022/12/14 07:03:28;;;;;;;73.10;44.22;;;77.30;2227.20;;;;;;4991657;28;20473;-55
2022/12/14 07:05:58;;;;;;;70.65;45.28;;;77.40;2227.20;;;;;;4991770;28;20030;-56
2022/12/14 07:08:24;;;;;;;74.75;43.65;;;77.50;2227.20;;;;;;4991472;28;20051;-56
2022/12/14 07:10:51;;;;;;;74.97;44.13;;;77.40;2227.20;;;;;;4991391;28;20548;-61
2022/12/14 07:13:17;;;;;;;70.25;44.50;;;77.50;2227.20;;;;;;4991497;28;20050;-55
2022/12/14 07:15:43;;;;;;;75.72;46.97;;;77.50;2227.20;;;;;;4991518;28;20185;-62
2022/12/14 07:18:09;;;;;;;67.22;44.63;;;77.60;2227.20;;;;;;4991245;28;20038;-55
2022/12/14 07:20:35;;;;;;;69.20;46.45;;;77.50;2227.20;;;;;;4991220;28;20384;-56
2022/12/14 07:23:01;;;;;;;74.15;48.95;;;77.50;2227.20;;;;;;4991473;28;20031;-55
2022/12/14 07:25:27;;;;;;;63.67;42.50;;;77.50;2227.20;;;;;;4991407;28;20034;-61
2022/12/14 07:27:52;;;;;;;78.80;58.85;;;77.50;2227.20;;;;;;4991183;28;20027;-57
2022/12/14 07:30:18;;;;;;;74.20;45.47;;;77.60;2227.20;;;;;;4991101;28;20500;-56
2022/12/14 07:32:44;;;;;;;74.00;45.80;;;77.50;2227.20;;;;;;4991236;28;20039;-56
2022/12/14 07:35:10;;;;;;;69.53;41.50;;;77.60;2227.20;;;;;;4990984;28;20105;-55
2022/12/14 07:37:37;;;;;;;87.85;51.13;;;77.50;2227.20;;;;;;4991071;28;20054;-55
2022/12/14 07:40:03;;;;;;;78.65;48.22;;;77.70;2227.20;;;;;;4990639;28;20121;-56
2022/12/14 07:42:29;;;;;;;74.25;45.50;;;77.70;2227.20;;;;;;4991317;28;20031;-55
2022/12/14 07:44:54;;;;;;;69.15;42.40;;;102.40;2227.20;;;;;;4991193;28;20113;-56
2022/12/14 07:47:20;;;;;;;67.07;41.70;;;102.60;2227.20;;;;;;4990991;28;20030;-56
2022/12/14 07:49:46;;;;;;;69.63;41.95;;;102.60;2227.20;;;;;;4990966;28;20117;-55
2022/12/14 07:52:11;;;;;;;70.68;43.97;;;102.40;2227.20;;;;;;4989868;28;20041;-55
2022/12/14 07:54:37;;;;;;;70.65;46.03;;;102.40;2227.20;;;;;;4990922;28;20113;-56
2022/12/14 07:57:03;;;;;;;61.92;40.85;;;102.40;2227.20;;;;;;4990661;28;20058;-56
2022/12/14 07:59:28;;;;;;;68.03;40.03;;;102.60;2227.20;;;;;;4990852;28;20109;-60
2022/12/14 08:01:54;;;;;;;63.72;37.05;;;102.80;2227.20;;;;;;4990780;28;20054;-55
2022/12/14 08:04:20;;;;;;;61.20;39.38;;;103.10;2227.20;;;;;;4990321;28;20026;-56
2022/12/14 08:06:48;;;;;;;65.35;40.35;;;103.30;2227.20;;;;;;4990632;28;20448;-60
2022/12/14 08:09:14;;;;;;;59.35;39.10;;;103.30;2227.20;;;;;;4990549;28;20166;-57
2022/12/14 08:11:40;;;;;;;58.53;39.70;;;128.10;2252.80;;;;;;4990638;28;20081;-54
2022/12/14 08:14:17;;;;;;;54.90;36.15;;;128.40;2252.80;;;;;;4990566;28;20034;-54
2022/12/14 08:16:45;;;;;;;53.92;36.17;;;128.40;2252.80;;;;;;4990637;28;20023;-60
2022/12/14 08:19:11;;;;;;;49.58;33.47;;;128.20;2252.80;;;;;;4990328;28;20033;-54
2022/12/14 08:21:38;;;;;;;47.85;32.45;;;128.40;2252.80;;;;;;4990885;28;20089;-54
2022/12/14 08:24:04;;;;;;;55.55;34.72;;;128.40;2252.80;;;;;;4990607;28;20033;-55
2022/12/14 08:26:29;;;;;;;58.75;36.20;;;128.50;2252.80;;;;;;4990438;28;20026;-54
2022/12/14 08:28:55;;;;;;;51.25;34.60;;;128.60;2252.80;;;;;;4990657;28;20026;-53
2022/12/14 08:31:24;;;;;;;54.60;36.03;;;128.60;2252.80;;;;;;4990388;28;20031;-60
2022/12/14 08:33:51;;;;;;;60.53;40.58;;;128.60;2252.80;;;;;;4990270;28;20042;-54
2022/12/14 08:36:25;;;;;;;56.45;38.55;;;128.60;2252.80;;;;;;4990512;28;20109;-53
2022/12/14 08:38:55;;;;;;;59.15;42.05;;;128.90;2252.80;;;;;;4990180;28;20442;-56
2022/12/14 08:41:24;;;;;;;64.72;44.50;;;153.60;2252.80;;;;;;4990342;28;20030;-60
2022/12/14 08:43:51;;;;;;;69.72;48.97;;;153.60;2252.80;;;;;;4990408;28;20045;-60
2022/12/14 08:46:17;;;;;;;76.65;49.05;;;128.60;2252.80;;;;;;4990449;28;20030;-55
2022/12/14 08:48:43;;;;;;;75.10;49.35;;;128.80;2252.80;;;;;;4990295;28;20473;-54
2022/12/14 08:51:09;;;;;;;74.88;48.83;;;128.90;2252.80;;;;;;4990313;28;20023;-54
2022/12/14 08:53:36;;;;;;;84.90;54.10;;;128.90;2252.80;;;;;;4990259;28;20070;-54
2022/12/14 08:56:09;;;;;;;92.68;63.50;;;128.90;2252.80;;;;;;4990129;28;20037;-53
2022/12/14 08:58:35;;;;;;;104.70;67.80;;;153.60;2252.80;;;;;;4990407;28;20507;-54
2022/12/14 09:01:04;;;;;;;105.88;64.93;;;153.60;2252.80;;;;;;4990147;28;20026;-55
2022/12/14 09:03:30;;;;;;;108.32;72.07;;;153.70;2252.80;;;;;;4992263;28;20053;-54
2022/12/14 09:06:01;;;;;;;117.03;76.97;;;153.70;2252.80;;;;;;4994038;28;20046;-54
2022/12/14 09:08:26;;;;;;;149.18;96.60;;;153.70;2252.80;;;;;;4994101;28;20038;-53
2022/12/14 09:10:52;;;;;;;157.38;107.35;;;128.60;2252.80;;;;;;4993986;28;20022;-60
2022/12/14 09:13:18;;;;;;;156.40;102.15;;;153.60;2252.80;;;;;;4993518;28;20042;-53
2022/12/14 09:15:43;;;;;;;144.38;93.50;;;153.80;2252.80;;;;;;4993832;28;20035;-53
2022/12/14 09:18:09;;;;;;;129.30;90.57;;;154.00;2252.80;;;;;;4993521;28;20396;-60
2022/12/14 09:20:35;;;;;;;141.05;98.35;;;154.10;2252.80;;;;;;4993743;28;20030;-60
2022/12/14 09:23:01;;;;;;;151.32;98.68;;;154.10;2252.80;;;;;;4993540;28;20072;-59
2022/12/14 09:25:27;;;;;;;149.98;96.75;;;154.00;2252.80;;;;;;4993623;28;20026;-53
2022/12/14 09:27:53;;;;;;;136.23;94.95;;;154.00;2252.80;;;;;;4993694;28;20457;-60
2022/12/14 09:30:19;;;;;;;139.35;95.57;;;153.70;2252.80;;;;;;4993399;28;20050;-54
2022/12/14 09:32:45;;;;;;;141.60;98.32;;;153.90;2252.80;;;;;;4993247;28;20390;-60
2022/12/14 09:35:11;;;;;;;140.82;90.00;;;153.80;2252.80;;;;;;4993120;28;20034;-54
2022/12/14 09:37:38;;;;;;;130.43;93.72;;;154.10;2252.80;;;;;;4993336;28;20029;-55
2022/12/14 09:40:05;;;;;;;131.57;93.25;;;154.20;2252.80;;;;;;4993175;28;20030;-53
2022/12/14 09:42:52;;;;;;;142.73;94.95;;;154.40;2252.80;;;;;;4993185;28;20062;-53
2022/12/14 09:45:25;;;;;;;135.10;91.97;;;154.20;2252.80;;;;;;4993001;28;20026;-53
2022/12/14 09:48:09;;;;;;;133.57;94.47;;;154.30;2252.80;;;;;;4993347;28;20354;-59
2022/12/14 09:50:36;;;;;;;109.70;76.47;;;154.00;2252.80;;;;;;4993305;28;20275;-53
2022/12/14 09:53:06;;;;;;;91.88;58.50;;;154.00;2252.80;;;;;;4992939;28;20038;-54
2022/12/14 09:55:40;;;;;;;88.57;56.70;;;153.80;2252.80;;;;;;4992901;28;20042;-54
2022/12/14 09:58:17;;;;;;;78.43;53.45;;;153.80;2252.80;;;;;;4992727;28;20054;-53
2022/12/14 10:00:46;;;;;;;76.90;49.60;;;153.90;2252.80;;;;;;4992998;28;20040;-53
2022/12/14 10:03:24;;;;;;;72.45;47.47;;;153.90;2252.80;;;;;;4992872;28;20034;-60
2022/12/14 10:06:02;;;;;;;67.70;43.15;;;153.90;2252.80;;;;;;4992549;28;20555;-53
2022/12/14 10:08:37;;;;;;;69.78;52.08;;;153.90;2252.80;;;;;;4990777;28;20093;-58
2022/12/14 10:11:20;;;;;;;68.03;46.00;;;153.60;2252.80;;;;;;4991174;28;20030;-54
2022/12/14 10:14:14;;;;;;;64.57;44.85;;;153.60;2252.80;;;;;;4990578;28;20038;-53
2022/12/14 10:16:47;;;;;;;70.43;44.60;;;153.70;2252.80;;;;;;4911538;29;20032;-54
2022/12/14 10:19:32;;;;;;;65.05;42.40;;;153.70;2252.80;;;;;;4911854;29;20047;-53
2022/12/14 10:22:14;;;;;;;67.43;49.10;;;153.90;2252.80;;;;;;4910925;29;20071;-56
2022/12/14 10:24:44;;;;;;;60.05;42.65;;;154.20;2252.80;;;;;;4911456;29;20104;-56
2022/12/14 10:27:21;;;;;;;76.65;48.72;;;154.30;2252.80;;;;;;4911358;29;20036;-58
2022/12/14 10:29:56;;;;;;;69.72;48.38;;;154.40;2252.80;;;;;;4911622;29;20487;-55
2022/12/14 10:32:32;;;;;;;59.33;41.08;;;179.20;2252.80;;;;;;4911337;29;20028;-57
2022/12/14 10:35:13;;;;;;;61.90;43.15;;;154.50;2252.80;;;;;;4910598;29;20048;-54
2022/12/14 10:37:42;;;;;;;57.58;40.85;;;179.20;2252.80;;;;;;4911102;29;20511;-53
2022/12/14 10:40:08;;;;;;;59.92;39.83;;;179.30;2252.80;;;;;;4911030;29;20492;-53
2022/12/14 10:43:00;;;;;;;63.13;44.47;;;179.20;2252.80;;;;;;4911423;29;20091;-56
2022/12/14 10:46:24;;;;;;;65.00;44.15;;;179.30;2252.80;;;;;;4911387;29;20144;-55
2022/12/14 10:49:04;;;;;;;54.70;37.17;;;179.30;2252.80;;;;;;4872912;29;20047;-54
2022/12/14 10:51:52;;;;;;;65.72;41.40;;;154.20;2252.80;;;;;;4873392;29;20040;-54
2022/12/14 10:54:27;;;;;;;68.25;41.15;;;154.00;2252.80;;;;;;4888045;29;20131;-54
2022/12/14 10:56:53;;;;;;;85.28;54.80;;;153.80;2252.80;;;;;;4892121;29;20650;-59
2022/12/14 10:59:25;;;;;;;95.60;63.63;;;154.00;2252.80;;;;;;4892000;29;20109;-56
2022/12/14 11:02:03;;;;;;;68.13;45.90;;;154.20;2252.80;;;;;;4891454;29;20092;-53
2022/12/14 11:04:31;;;;;;;431.40;244.52;;;154.20;2252.80;;;;;;4891869;29;20032;-60
2022/12/14 11:06:58;;;;;;;155.43;98.15;;;154.00;2252.80;;;;;;4892033;29;20053;-56
2022/12/14 11:09:24;;;;;;;159.80;108.32;;;154.10;2252.80;;;;;;4891808;29;20574;-59
2022/12/14 11:12:02;;;;;;;211.38;139.93;;;154.40;2252.80;;;;;;4893125;29;20025;-53
2022/12/14 11:14:28;;;;;;;138.05;93.35;;;154.40;2252.80;;;;;;4894118;29;20044;-54
2022/12/14 11:16:54;;;;;;;98.68;65.68;;;154.50;2252.80;;;;;;4893875;29;20032;-54
2022/12/14 11:19:22;;;;;;;85.40;58.13;;;154.40;2252.80;;;;;;4916595;29;20031;-54
2022/12/14 11:21:50;;;;;;;106.32;72.57;;;154.20;2252.80;;;;;;4952268;29;20026;-57
2022/12/14 11:24:23;;;;;;;135.52;97.93;;;154.10;2252.80;;;;;;4952566;29;20087;-54
2022/12/14 11:26:51;;;;;;;152.65;103.22;;;154.00;2252.80;;;;;;4952127;28;20031;-54
2022/12/14 11:29:24;;;;;;;140.32;97.00;;;154.20;2252.80;;;;;;4952542;29;20515;-54
2022/12/14 11:31:53;;;;;;;112.22;78.43;;;154.30;2252.80;;;;;;4952177;29;20023;-54
2022/12/14 11:34:41;;;;;;;86.55;58.50;;;154.30;2252.80;;;;;;4952002;29;20086;-54
2022/12/14 11:37:20;;;;;;;104.32;71.63;;;154.40;2252.80;;;;;;4952353;29;20132;-60
2022/12/14 11:39:50;;;;;;;131.60;99.55;;;154.40;2252.80;;;;;;4952088;29;20026;-54
2022/12/14 11:42:18;;;;;;;125.00;89.03;;;179.20;2252.80;;;;;;4952030;29;20086;-54
2022/12/14 11:44:45;;;;;;;91.18;59.85;;;179.30;2252.80;;;;;;4952323;29;20027;-54
2022/12/14 11:47:15;;;;;;;78.45;54.28;;;154.50;2252.80;;;;;;4951689;28;20024;-54
2022/12/14 11:49:43;;;;;;;84.65;53.33;;;154.40;2252.80;;;;;;4952160;28;20023;-54
2022/12/14 11:52:09;;;;;;;104.82;66.93;;;154.40;2252.80;;;;;;4951879;29;20093;-55
2022/12/14 11:54:37;;;;;;;100.75;64.75;;;154.00;2252.80;;;;;;4952445;29;20066;-54
2022/12/14 11:57:11;;;;;;;94.80;64.57;;;153.90;2252.80;;;;;;4972831;28;20130;-58
2022/12/14 11:59:52;;;;;;;95.82;64.22;;;154.00;2252.80;;;;;;4990938;28;20030;-59
2022/12/14 12:02:23;;;;;;;89.68;60.20;;;154.20;2252.80;;;;;;4990497;28;20038;-55
2022/12/14 12:05:01;;;;;;;90.93;63.50;;;154.40;2252.80;;;;;;4990562;28;20057;-55
2022/12/14 12:07:33;;;;;;;85.57;62.25;;;154.50;2252.80;;;;;;4990614;28;20444;-55
2022/12/14 12:10:20;;;;;;;83.82;57.22;;;179.20;2252.80;;;;;;4990265;28;20027;-55
2022/12/14 12:13:18;;;;;;;79.05;56.15;;;179.30;2252.80;;;;;;4989794;28;20129;-59
2022/12/14 12:15:55;;;;;;;83.10;59.50;;;179.20;2252.80;;;;;;4951353;29;20098;-60
2022/12/14 12:18:33;;;;;;;87.72;63.15;;;179.40;2252.80;;;;;;4951748;28;20031;-61
2022/12/14 12:21:09;;;;;;;78.13;55.13;;;179.20;2252.80;;;;;;4951901;29;20102;-61
2022/12/14 12:23:59;;;;;;;85.65;54.83;;;154.50;2252.80;;;;;;4970646;28;20031;-60
2022/12/14 12:26:33;;;;;;;87.10;61.00;;;154.40;2252.80;;;;;;4971289;28;20067;-55
2022/12/14 12:29:05;;;;;;;91.20;61.67;;;154.50;2252.80;;;;;;4971286;28;20490;-55
2022/12/14 12:31:37;;;;;;;88.82;61.08;;;154.50;2252.80;;;;;;4971422;28;20031;-53
2022/12/14 12:34:11;;;;;;;85.13;57.03;;;179.30;2252.80;;;;;;4970928;28;20045;-59